Time;durP1;ratioP1;P1;durP2;ratioP2;P2;SDS_P1;SDS_P2;PMS_P1;PMS_P2;Temp;Humidity;BMP_temperature;BMP_pressure;BME280_temperature;BME280_humidity;BME280_pressure;Samples;Min_cycle;Max_cycle;Signal;HPM_P1;HPM_P2
2024/01/15 06:02:03;;;;;;;22.45;9.60;;;0.10;81.10;;;;;;4179373;23;20103;-75
2024/01/15 06:04:05;;;;;;;24.23;10.80;;;0.10;81.20;;;;;;4084789;29;20052;-76
2024/01/15 06:06:07;;;;;;;23.70;9.30;;;0.10;81.30;;;;;;4102286;29;20106;-77
2024/01/15 06:08:09;;;;;;;22.10;9.68;;;0.10;81.20;;;;;;4101379;29;20117;-75
2024/01/15 06:10:11;;;;;;;23.10;10.23;;;0.10;81.10;;;;;;4102388;29;20386;-75
2024/01/15 06:12:12;;;;;;;24.30;9.73;;;0.10;81.10;;;;;;4102525;29;20047;-76
2024/01/15 06:14:14;;;;;;;21.23;9.23;;;0.10;81.30;;;;;;4102364;29;20081;-76
2024/01/15 06:16:19;;;;;;;25.95;10.32;;;0.10;81.30;;;;;;4102637;29;20088;-77
2024/01/15 06:18:22;;;;;;;21.42;9.93;;;0.20;81.40;;;;;;4100923;29;20075;-76
2024/01/15 06:20:24;;;;;;;21.40;10.27;;;0.20;81.50;;;;;;4100642;29;20098;-77
2024/01/15 06:22:24;;;;;;;22.00;9.73;;;0.20;81.70;;;;;;4100728;29;20453;-77
2024/01/15 06:24:26;;;;;;;24.95;10.70;;;0.20;81.80;;;;;;4100623;29;20098;-78
2024/01/15 06:26:28;;;;;;;23.40;10.43;;;0.10;81.80;;;;;;4100520;29;20062;-77
2024/01/15 06:28:30;;;;;;;21.08;9.10;;;0.10;81.90;;;;;;4100516;29;20052;-75
2024/01/15 06:30:32;;;;;;;23.55;9.75;;;0.10;81.70;;;;;;4093059;28;20536;-76
2024/01/15 06:32:34;;;;;;;24.70;9.77;;;0.20;81.60;;;;;;4084632;29;20051;-75
2024/01/15 06:34:37;;;;;;;24.50;10.40;;;0.20;81.60;;;;;;4084602;29;20047;-76
2024/01/15 06:36:39;;;;;;;21.60;9.23;;;0.20;81.50;;;;;;4084567;29;20047;-78
2024/01/15 06:38:41;;;;;;;21.02;9.40;;;0.20;81.20;;;;;;4084685;29;20098;-75
2024/01/15 06:40:45;;;;;;;21.38;9.98;;;0.20;80.90;;;;;;4084607;29;20458;-75
2024/01/15 06:42:47;;;;;;;19.33;9.07;;;0.20;80.80;;;;;;4084744;29;20056;-78
2024/01/15 06:44:49;;;;;;;19.20;9.30;;;0.20;80.60;;;;;;4084663;29;20055;-76
2024/01/15 06:46:51;;;;;;;22.13;9.05;;;0.20;80.60;;;;;;4084649;29;20114;-78
2024/01/15 06:48:53;;;;;;;22.40;9.55;;;0.20;80.50;;;;;;4084656;29;20054;-76
2024/01/15 06:50:56;;;;;;;17.80;8.95;;;0.20;80.30;;;;;;4084551;29;20051;-76
2024/01/15 06:52:58;;;;;;;20.20;8.57;;;0.20;80.00;;;;;;4084720;29;20051;-78
2024/01/15 06:54:59;;;;;;;20.13;9.50;;;0.20;79.80;;;;;;4084562;29;20142;-78
2024/01/15 06:57:01;;;;;;;21.10;8.30;;;0.20;79.70;;;;;;4090036;29;20418;-77
2024/01/15 06:59:03;;;;;;;23.17;9.05;;;0.20;79.50;;;;;;4100197;29;20047;-76
2024/01/15 07:01:05;;;;;;;20.48;9.02;;;0.20;79.50;;;;;;4100290;29;20552;-76
2024/01/15 07:03:08;;;;;;;21.98;9.70;;;0.20;79.40;;;;;;4100090;29;20051;-75
2024/01/15 07:05:10;;;;;;;19.95;9.40;;;0.20;79.30;;;;;;4100365;29;20047;-75
2024/01/15 07:07:13;;;;;;;20.50;9.05;;;0.20;79.10;;;;;;4100310;29;20051;-77
2024/01/15 07:09:16;;;;;;;22.23;10.07;;;0.20;78.90;;;;;;4100568;29;20047;-77
2024/01/15 07:11:18;;;;;;;20.48;8.63;;;0.20;78.60;;;;;;4100237;29;20053;-77
2024/01/15 07:13:20;;;;;;;18.90;8.65;;;0.20;78.20;;;;;;4100358;29;20047;-77
2024/01/15 07:15:22;;;;;;;20.15;8.98;;;0.20;78.10;;;;;;4100078;29;20051;-77
2024/01/15 07:17:24;;;;;;;18.55;8.75;;;0.30;77.90;;;;;;4100467;29;20130;-75
2024/01/15 07:19:26;;;;;;;19.92;9.25;;;0.30;77.80;;;;;;4100242;29;20472;-75
2024/01/15 07:21:28;;;;;;;17.83;8.18;;;0.30;77.70;;;;;;4100260;29;20051;-75
2024/01/15 07:23:32;;;;;;;15.85;7.45;;;0.30;77.40;;;;;;4100224;29;20054;-78
2024/01/15 07:25:34;;;;;;;17.15;8.32;;;0.30;77.30;;;;;;4090303;29;20087;-77
2024/01/15 07:27:35;;;;;;;18.35;8.40;;;0.30;77.20;;;;;;4084503;29;20537;-76
2024/01/15 07:29:38;;;;;;;20.70;7.93;;;0.30;76.90;;;;;;4084215;29;20052;-75
2024/01/15 07:31:39;;;;;;;15.50;7.07;;;0.30;76.40;;;;;;4084444;29;20098;-76
2024/01/15 07:33:41;;;;;;;19.85;7.95;;;0.40;76.40;;;;;;4084063;29;20102;-76
2024/01/15 07:35:43;;;;;;;20.45;8.50;;;0.40;76.50;;;;;;4084635;29;20094;-75
2024/01/15 07:37:44;;;;;;;19.83;8.10;;;0.40;76.40;;;;;;4085639;29;20051;-77
2024/01/15 07:39:47;;;;;;;16.75;7.80;;;0.40;76.20;;;;;;4084612;29;20052;-77
2024/01/15 07:41:49;;;;;;;15.52;7.65;;;0.40;76.20;;;;;;4086269;29;20105;-77
2024/01/15 07:43:51;;;;;;;15.88;7.88;;;0.40;76.00;;;;;;4087041;29;20102;-75
2024/01/15 07:45:53;;;;;;;17.77;7.53;;;0.40;75.70;;;;;;4086890;29;20098;-78
2024/01/15 07:47:55;;;;;;;17.58;8.00;;;0.40;75.40;;;;;;4099598;29;20481;-77
2024/01/15 07:49:57;;;;;;;40.72;16.48;;;0.50;75.30;;;;;;4102739;29;20503;-76
2024/01/15 07:51:59;;;;;;;30.27;13.38;;;0.50;75.20;;;;;;4102671;29;20432;-77
2024/01/15 07:54:00;;;;;;;19.52;8.52;;;0.50;74.90;;;;;;4102543;29;20102;-78
2024/01/15 07:56:04;;;;;;;17.48;7.35;;;0.50;74.70;;;;;;4097648;29;20083;-77
2024/01/15 07:58:06;;;;;;;15.20;6.75;;;0.50;74.60;;;;;;4086994;29;20118;-78
2024/01/15 08:00:09;;;;;;;15.90;7.25;;;0.50;74.40;;;;;;4086885;29;20047;-76
2024/01/15 08:02:11;;;;;;;17.33;7.55;;;0.50;74.20;;;;;;4086689;29;20102;-76
2024/01/15 08:04:13;;;;;;;17.67;7.32;;;0.60;74.20;;;;;;4086794;29;20051;-78
2024/01/15 08:06:15;;;;;;;17.52;7.85;;;0.60;74.10;;;;;;4086856;29;20147;-79
2024/01/15 08:08:16;;;;;;;19.60;7.97;;;0.60;73.80;;;;;;4086907;29;20052;-80
2024/01/15 08:10:18;;;;;;;16.25;7.75;;;0.60;73.80;;;;;;4086777;29;20055;-77
2024/01/15 08:12:22;;;;;;;15.65;6.85;;;0.60;73.90;;;;;;4086851;29;20047;-76
2024/01/15 08:14:24;;;;;;;15.70;6.80;;;0.60;73.60;;;;;;4086859;29;20533;-77
2024/01/15 08:16:27;;;;;;;17.33;6.85;;;0.60;72.90;;;;;;4098834;29;20051;-76
2024/01/15 08:18:28;;;;;;;15.90;6.65;;;0.60;72.80;;;;;;4102522;29;20058;-76
2024/01/15 08:20:30;;;;;;;14.38;6.63;;;0.60;72.70;;;;;;4102400;29;20110;-78
2024/01/15 08:22:32;;;;;;;15.73;6.65;;;0.60;72.40;;;;;;4102468;29;20057;-77
2024/01/15 08:24:34;;;;;;;15.23;6.40;;;0.70;72.60;;;;;;4102357;29;20460;-79
2024/01/15 08:26:36;;;;;;;14.63;6.50;;;0.70;72.50;;;;;;4102342;29;20047;-78
2024/01/15 08:28:39;;;;;;;12.95;6.15;;;0.70;72.40;;;;;;4102224;29;20048;-77
2024/01/15 08:30:41;;;;;;;16.20;6.30;;;0.70;71.90;;;;;;4102083;29;20055;-78
2024/01/15 08:32:43;;;;;;;14.68;6.85;;;0.80;71.70;;;;;;4102256;29;20109;-74
2024/01/15 08:34:47;;;;;;;13.38;6.10;;;0.80;71.70;;;;;;4102180;29;20058;-79
2024/01/15 08:36:49;;;;;;;15.95;7.32;;;0.80;71.70;;;;;;4094332;29;20058;-79
2024/01/15 08:38:50;;;;;;;13.20;5.65;;;0.80;71.60;;;;;;4086336;29;20553;-78
2024/01/15 08:40:53;;;;;;;18.70;7.22;;;0.80;71.60;;;;;;4086223;29;20107;-78
2024/01/15 08:42:55;;;;;;;14.90;6.40;;;0.80;71.60;;;;;;4086287;29;20482;-76
2024/01/15 08:44:58;;;;;;;15.95;6.55;;;0.80;71.60;;;;;;4086235;29;20051;-78
2024/01/15 08:47:00;;;;;;;16.95;7.10;;;0.80;71.50;;;;;;4086217;29;20055;-77
2024/01/15 08:49:01;;;;;;;16.73;6.57;;;0.80;71.20;;;;;;4085965;29;20052;-78
2024/01/15 08:51:03;;;;;;;14.65;6.85;;;0.80;71.40;;;;;;4086126;29;20074;-79
2024/01/15 08:53:05;;;;;;;14.25;6.03;;;0.80;71.40;;;;;;4085280;29;20516;-78
2024/01/15 08:55:08;;;;;;;14.82;6.50;;;0.80;71.30;;;;;;4086135;29;20449;-79
2024/01/15 08:57:11;;;;;;;13.98;6.55;;;0.90;71.10;;;;;;4086076;29;20052;-79
2024/01/15 08:59:13;;;;;;;14.32;6.63;;;0.90;71.10;;;;;;4085963;29;20048;-78
2024/01/15 09:01:16;;;;;;;12.55;6.25;;;0.90;71.00;;;;;;4085737;29;20051;-79
2024/01/15 09:03:18;;;;;;;14.00;6.47;;;0.90;70.50;;;;;;4085720;29;20055;-78
2024/01/15 09:05:19;;;;;;;14.07;6.25;;;0.90;70.10;;;;;;4085628;29;20051;-78
2024/01/15 09:07:21;;;;;;;13.93;6.45;;;0.90;70.40;;;;;;4086004;29;20103;-78
2024/01/15 09:09:23;;;;;;;16.30;6.78;;;0.90;70.10;;;;;;4085726;29;20446;-79
2024/01/15 09:11:25;;;;;;;11.93;5.45;;;1.00;69.50;;;;;;4085709;29;20511;-78
2024/01/15 09:13:26;;;;;;;13.23;6.25;;;1.00;69.40;;;;;;4085566;29;20051;-78
2024/01/15 09:15:28;;;;;;;13.15;5.13;;;1.00;69.00;;;;;;4085670;29;20099;-78
2024/01/15 09:17:33;;;;;;;11.32;4.72;;;1.00;68.50;;;;;;4085590;29;20073;-77
2024/01/15 09:19:35;;;;;;;12.07;5.00;;;1.00;68.80;;;;;;4093178;29;20050;-79
2024/01/15 09:21:39;;;;;;;12.32;4.75;;;1.10;68.60;;;;;;4101397;29;20110;-78
2024/01/15 09:23:41;;;;;;;11.55;4.88;;;1.00;68.00;;;;;;4101264;29;20047;-77
2024/01/15 09:25:42;;;;;;;11.50;5.47;;;1.00;68.10;;;;;;4087028;29;20052;-79
2024/01/15 09:27:44;;;;;;;12.90;4.72;;;1.10;68.30;;;;;;4085457;29;20047;-77
2024/01/15 09:29:46;;;;;;;9.45;4.65;;;1.10;67.80;;;;;;4085468;29;20099;-79
2024/01/15 09:31:47;;;;;;;10.45;4.70;;;1.10;67.50;;;;;;4092821;29;20504;-78
2024/01/15 09:33:55;;;;;;;9.80;4.50;;;1.10;67.50;;;;;;4101155;29;20051;-77
2024/01/15 09:35:57;;;;;;;9.93;4.55;;;1.10;67.50;;;;;;4101229;29;20051;-78
2024/01/15 09:38:00;;;;;;;12.75;5.18;;;1.20;67.50;;;;;;4101057;29;20098;-77
2024/01/15 09:40:03;;;;;;;15.10;5.38;;;1.20;67.10;;;;;;4100777;29;20047;-77
2024/01/15 09:42:06;;;;;;;11.07;4.75;;;1.20;67.10;;;;;;4069583;29;20048;-77
2024/01/15 09:44:09;;;;;;;10.48;4.75;;;1.30;67.20;;;;;;4069454;29;20103;-78
2024/01/15 09:46:13;;;;;;;9.60;4.25;;;1.30;67.00;;;;;;4069614;29;20048;-78
2024/01/15 09:48:15;;;;;;;11.07;4.65;;;1.30;66.90;;;;;;4069502;29;20100;-76
2024/01/15 09:50:18;;;;;;;8.93;4.25;;;1.40;66.90;;;;;;4099564;29;20063;-75
2024/01/15 09:52:20;;;;;;;7.97;3.90;;;1.40;66.90;;;;;;4101070;29;20047;-76
2024/01/15 09:54:22;;;;;;;8.80;4.07;;;1.40;66.50;;;;;;4100847;29;20445;-78
2024/01/15 09:56:24;;;;;;;7.45;3.85;;;1.40;66.80;;;;;;4101016;29;20055;-79
2024/01/15 09:58:27;;;;;;;7.90;3.67;;;1.50;66.20;;;;;;4101034;29;20047;-79
2024/01/15 10:00:30;;;;;;;9.52;3.25;;;1.50;66.00;;;;;;4100596;29;20051;-78
2024/01/15 10:02:31;;;;;;;8.52;3.50;;;1.50;65.70;;;;;;4089736;29;20082;-79
2024/01/15 10:04:33;;;;;;;6.72;2.88;;;1.60;65.90;;;;;;4084807;29;20490;-78
2024/01/15 10:06:37;;;;;;;7.00;3.00;;;1.60;65.20;;;;;;4085015;29;20047;-76
2024/01/15 10:08:39;;;;;;;8.05;2.65;;;1.60;64.80;;;;;;4084923;29;20043;-77
2024/01/15 10:10:42;;;;;;;6.53;2.90;;;1.70;64.80;;;;;;4085079;29;20047;-79
2024/01/15 10:12:44;;;;;;;5.72;2.47;;;1.70;64.60;;;;;;4084876;29;20054;-78
2024/01/15 10:14:44;;;;;;;7.63;2.88;;;1.70;64.10;;;;;;4085141;29;20167;-78
2024/01/15 10:16:46;;;;;;;5.65;2.25;;;1.80;64.10;;;;;;4084860;29;20476;-79
2024/01/15 10:18:49;;;;;;;6.20;2.50;;;1.80;63.90;;;;;;4084871;29;20064;-79
2024/01/15 10:20:51;;;;;;;5.97;2.58;;;1.80;64.00;;;;;;4084838;29;20390;-78
2024/01/15 10:22:54;;;;;;;5.45;3.05;;;1.80;64.00;;;;;;4084949;29;20056;-77
2024/01/15 10:24:56;;;;;;;5.65;2.58;;;1.90;63.80;;;;;;4086018;29;20139;-79
2024/01/15 10:27:07;;;;;;;5.95;2.45;;;1.90;63.80;;;;;;4084924;29;20110;-77
2024/01/15 10:29:10;;;;;;;7.10;2.40;;;1.90;63.70;;;;;;4085411;29;20083;-76
2024/01/15 10:31:13;;;;;;;9.18;2.80;;;1.90;63.60;;;;;;4086059;29;20051;-76
2024/01/15 10:33:15;;;;;;;5.05;2.28;;;1.80;64.60;;;;;;4084879;29;20051;-79
2024/01/15 10:35:17;;;;;;;11.00;3.55;;;1.90;63.70;;;;;;4087208;29;20044;-79
2024/01/15 10:37:20;;;;;;;29.70;12.38;;;1.90;63.80;;;;;;4100649;29;20531;-79
2024/01/15 10:39:23;;;;;;;7.43;2.45;;;1.80;63.80;;;;;;4100580;29;20047;-78
2024/01/15 10:41:25;;;;;;;6.53;2.75;;;1.80;64.00;;;;;;4100613;29;20047;-79
2024/01/15 10:43:26;;;;;;;5.88;2.28;;;1.90;64.20;;;;;;4100321;29;20050;-77
2024/01/15 10:45:28;;;;;;;6.93;2.42;;;1.90;64.20;;;;;;4100533;29;20536;-77
2024/01/15 10:47:30;;;;;;;6.18;2.70;;;1.90;64.00;;;;;;4100693;29;20055;-78
2024/01/15 10:49:32;;;;;;;5.47;2.30;;;1.90;63.70;;;;;;4100589;29;20449;-78
2024/01/15 10:51:34;;;;;;;5.25;2.60;;;1.90;63.60;;;;;;4100554;29;20552;-78
2024/01/15 10:53:38;;;;;;;7.03;2.38;;;2.00;63.80;;;;;;4100501;29;20047;-75
2024/01/15 10:55:43;;;;;;;7.03;2.45;;;1.90;63.20;;;;;;4100527;29;20047;-76
2024/01/15 10:57:46;;;;;;;5.35;2.15;;;1.90;63.00;;;;;;4098665;29;20051;-78
2024/01/15 10:59:48;;;;;;;7.07;2.60;;;1.90;63.10;;;;;;4100101;29;20055;-78
2024/01/15 11:01:53;;;;;;;10.23;2.38;;;2.00;63.30;;;;;;4093471;29;20501;-79
2024/01/15 11:03:57;;;;;;;6.50;2.45;;;1.90;63.30;;;;;;4082262;29;20055;-77
2024/01/15 11:06:00;;;;;;;7.25;2.75;;;1.90;63.60;;;;;;4082297;29;20052;-80
2024/01/15 11:08:02;;;;;;;6.15;2.45;;;1.90;63.90;;;;;;4082153;29;20096;-78
2024/01/15 11:10:05;;;;;;;8.30;2.60;;;1.90;63.60;;;;;;4082223;29;20102;-78
2024/01/15 11:12:15;;;;;;;5.70;2.50;;;2.00;63.80;;;;;;4093442;29;20264;-79
2024/01/15 11:14:36;;;;;;;6.28;2.40;;;2.00;63.80;;;;;;4097857;29;20070;-79
2024/01/15 11:16:59;;;;;;;5.13;2.83;;;1.90;64.10;;;;;;4099954;28;20051;-77
2024/01/15 11:19:08;;;;;;;5.47;2.40;;;1.90;64.30;;;;;;4088025;29;20062;-77
2024/01/15 11:21:24;;;;;;;6.47;2.40;;;1.90;65.30;;;;;;4085398;29;20048;-79
2024/01/15 11:23:46;;;;;;;7.28;2.70;;;1.90;64.60;;;;;;4085526;29;20639;-79
2024/01/15 11:25:47;;;;;;;6.07;2.70;;;1.90;64.80;;;;;;4085044;29;20047;-77
2024/01/15 11:27:52;;;;;;;5.95;2.40;;;2.00;65.00;;;;;;4085311;29;20055;-79
2024/01/15 11:30:05;;;;;;;6.28;2.40;;;1.90;65.10;;;;;;4085210;29;20099;-76
2024/01/15 11:32:08;;;;;;;6.05;2.88;;;1.90;65.20;;;;;;4085273;29;20048;-77
2024/01/15 11:34:10;;;;;;;4.93;2.38;;;2.00;65.30;;;;;;4085100;29;20052;-75
2024/01/15 11:36:12;;;;;;;7.22;2.60;;;2.00;65.50;;;;;;4083335;29;20098;-79
2024/01/15 11:38:28;;;;;;;6.97;2.50;;;2.00;65.70;;;;;;4085060;29;20401;-79
2024/01/15 11:40:44;;;;;;;6.07;2.72;;;2.00;65.90;;;;;;4082438;29;20083;-78
2024/01/15 11:42:45;;;;;;;7.00;2.90;;;2.00;66.00;;;;;;4086468;29;20083;-76
2024/01/15 11:44:49;;;;;;;7.85;3.35;;;2.00;66.10;;;;;;4085934;29;20043;-77
2024/01/15 11:46:58;;;;;;;8.88;3.60;;;2.00;66.40;;;;;;4085156;29;20079;-76
2024/01/15 11:49:05;;;;;;;7.95;2.80;;;2.00;66.60;;;;;;4085122;29;20055;-76
2024/01/15 11:51:12;;;;;;;7.60;3.20;;;1.90;66.80;;;;;;4084880;29;20047;-76
2024/01/15 11:53:34;;;;;;;6.93;3.45;;;2.00;67.20;;;;;;4085357;29;20052;-75
2024/01/15 11:55:40;;;;;;;7.07;3.10;;;1.90;67.10;;;;;;4085045;29;20139;-78
2024/01/15 11:57:43;;;;;;;7.30;3.20;;;2.00;67.20;;;;;;4069123;29;20485;-78
2024/01/15 11:59:45;;;;;;;6.70;3.53;;;2.00;67.30;;;;;;4069109;29;20051;-79
2024/01/15 12:01:48;;;;;;;7.50;3.50;;;2.00;67.40;;;;;;4099253;29;20461;-78
2024/01/15 12:03:50;;;;;;;6.85;2.90;;;2.00;67.60;;;;;;4100565;29;20481;-77
2024/01/15 12:05:53;;;;;;;7.22;2.90;;;2.00;67.90;;;;;;4100345;29;20047;-76
2024/01/15 12:07:55;;;;;;;5.63;2.80;;;2.00;68.40;;;;;;4100471;29;20057;-77
2024/01/15 12:09:57;;;;;;;7.80;3.40;;;1.90;70.00;;;;;;4100293;29;20051;-77
2024/01/15 12:12:08;;;;;;;7.10;2.85;;;1.90;70.90;;;;;;4100666;29;20055;-75
2024/01/15 12:14:10;;;;;;;8.43;3.30;;;1.90;71.90;;;;;;4100387;29;20094;-76
2024/01/15 12:16:13;;;;;;;7.50;3.53;;;1.80;73.60;;;;;;4100511;29;20058;-78
2024/01/15 12:18:18;;;;;;;7.43;3.45;;;1.80;74.00;;;;;;4100401;29;20047;-78
2024/01/15 12:20:19;;;;;;;7.87;3.57;;;1.80;74.70;;;;;;4100656;29;20090;-77
2024/01/15 12:22:21;;;;;;;8.20;3.50;;;1.80;74.10;;;;;;4092512;29;20079;-76
2024/01/15 12:24:23;;;;;;;6.28;3.25;;;1.80;73.90;;;;;;4084479;29;20103;-75
2024/01/15 12:26:25;;;;;;;7.90;3.25;;;1.90;73.80;;;;;;4084608;29;20449;-76
2024/01/15 12:28:29;;;;;;;6.65;3.30;;;1.80;74.60;;;;;;4083082;29;20119;-77
2024/01/15 12:30:32;;;;;;;8.65;3.83;;;1.80;74.60;;;;;;4084428;29;20138;-74
2024/01/15 12:32:35;;;;;;;7.82;3.50;;;1.80;74.80;;;;;;4084481;29;20473;-75
2024/01/15 12:34:38;;;;;;;8.73;4.05;;;1.80;74.90;;;;;;4084275;29;20062;-76
2024/01/15 12:36:42;;;;;;;9.88;4.10;;;1.80;75.70;;;;;;4082364;29;20106;-75
2024/01/15 12:38:45;;;;;;;8.23;3.78;;;1.80;76.50;;;;;;4084115;29;20062;-75
2024/01/15 12:40:47;;;;;;;10.73;3.83;;;1.80;76.40;;;;;;4084276;29;20052;-76
2024/01/15 12:42:49;;;;;;;8.27;3.60;;;1.80;76.00;;;;;;4088168;29;20457;-76
2024/01/15 12:44:51;;;;;;;8.68;3.38;;;1.80;75.80;;;;;;4099887;29;20553;-76
2024/01/15 12:46:53;;;;;;;9.25;3.72;;;1.90;75.60;;;;;;4099969;29;20059;-78
2024/01/15 12:48:57;;;;;;;7.85;3.70;;;1.90;75.30;;;;;;4099884;29;20114;-77
2024/01/15 12:51:00;;;;;;;8.80;4.28;;;1.90;75.20;;;;;;4099902;29;20109;-77
2024/01/15 12:53:02;;;;;;;7.82;3.75;;;1.90;76.10;;;;;;4100112;29;20521;-76
2024/01/15 12:55:04;;;;;;;8.30;3.80;;;1.80;77.50;;;;;;4099998;29;20461;-78
2024/01/15 12:57:06;;;;;;;8.07;3.80;;;1.60;78.30;;;;;;4099760;29;20105;-76
2024/01/15 12:59:08;;;;;;;10.27;4.50;;;1.60;79.10;;;;;;4099906;29;20055;-78
2024/01/15 13:01:10;;;;;;;9.40;4.45;;;1.60;81.00;;;;;;4099727;29;20055;-74
2024/01/15 13:03:11;;;;;;;10.85;4.20;;;1.50;82.10;;;;;;4099678;29;20094;-75
2024/01/15 13:05:13;;;;;;;9.90;4.80;;;1.50;83.00;;;;;;4099929;29;20481;-79
2024/01/15 13:07:16;;;;;;;11.18;5.45;;;1.50;83.00;;;;;;4100357;29;20615;-75
2024/01/15 13:09:19;;;;;;;10.25;4.40;;;1.50;83.30;;;;;;4100063;29;20051;-77
2024/01/15 13:11:21;;;;;;;10.38;5.15;;;1.40;83.80;;;;;;4090220;29;20112;-78
2024/01/15 13:13:22;;;;;;;11.25;5.25;;;1.40;84.00;;;;;;4084142;29;20103;-77
2024/01/15 13:15:24;;;;;;;11.07;5.35;;;1.40;84.90;;;;;;4083904;29;20549;-76
2024/01/15 13:17:26;;;;;;;12.70;5.30;;;1.40;84.80;;;;;;4083807;29;20048;-76
2024/01/15 13:19:27;;;;;;;11.52;4.93;;;1.40;85.10;;;;;;4084229;29;20106;-78
2024/01/15 13:21:29;;;;;;;12.73;5.60;;;1.20;87.00;;;;;;4083844;29;20048;-75
2024/01/15 13:23:32;;;;;;;11.88;5.70;;;1.20;88.10;;;;;;4086213;29;20047;-76
2024/01/15 13:25:35;;;;;;;12.07;5.75;;;1.20;88.60;;;;;;4090854;29;20550;-76
2024/01/15 13:27:37;;;;;;;12.65;6.35;;;1.30;88.90;;;;;;4087925;29;20142;-77
2024/01/15 13:29:39;;;;;;;10.93;5.65;;;1.20;89.20;;;;;;4083500;29;20063;-76
2024/01/15 13:31:41;;;;;;;12.95;6.05;;;1.20;88.70;;;;;;4083547;29;20300;-78
2024/01/15 13:33:43;;;;;;;12.50;5.60;;;1.30;88.80;;;;;;4083680;29;20545;-78
2024/01/15 13:35:45;;;;;;;12.55;5.57;;;1.20;88.70;;;;;;4081938;29;20052;-75
2024/01/15 13:37:47;;;;;;;14.45;5.85;;;1.10;88.80;;;;;;4084272;29;20047;-76
2024/01/15 13:39:49;;;;;;;12.02;6.03;;;1.20;88.40;;;;;;4084056;29;20063;-77
2024/01/15 13:41:51;;;;;;;13.25;6.15;;;1.10;88.80;;;;;;4084100;29;20051;-76
2024/01/15 13:43:53;;;;;;;14.15;5.68;;;1.10;89.60;;;;;;4084123;29;20052;-77
2024/01/15 13:45:55;;;;;;;13.93;6.38;;;1.10;90.10;;;;;;4084611;29;20054;-76
2024/01/15 13:47:56;;;;;;;14.13;6.18;;;1.00;90.60;;;;;;4083638;29;20139;-77
2024/01/15 13:49:57;;;;;;;13.48;6.03;;;0.90;91.30;;;;;;4083605;29;20079;-77
2024/01/15 13:52:00;;;;;;;15.30;6.45;;;0.90;91.60;;;;;;4084090;29;20051;-77
2024/01/15 13:54:04;;;;;;;16.77;7.70;;;0.80;92.00;;;;;;4083224;29;20048;-77
2024/01/15 13:56:10;;;;;;;18.02;6.97;;;0.80;92.80;;;;;;4083454;29;20398;-76
2024/01/15 13:58:12;;;;;;;19.08;7.50;;;0.70;93.00;;;;;;4083147;29;20158;-77
2024/01/15 14:00:18;;;;;;;15.48;7.63;;;0.80;93.30;;;;;;4083152;29;20048;-78
2024/01/15 14:02:21;;;;;;;18.08;8.57;;;0.80;92.80;;;;;;4082888;29;20060;-75
2024/01/15 14:04:22;;;;;;;16.25;7.25;;;0.70;92.90;;;;;;4083164;29;20052;-75
2024/01/15 14:06:25;;;;;;;16.92;7.35;;;0.80;93.30;;;;;;4082940;29;20218;-77
2024/01/15 14:08:27;;;;;;;18.30;8.73;;;0.80;93.00;;;;;;4082784;29;20375;-78
2024/01/15 14:10:29;;;;;;;16.55;7.15;;;0.80;93.10;;;;;;4082867;29;20410;-78
2024/01/15 14:12:33;;;;;;;14.68;7.20;;;0.80;93.00;;;;;;4082703;29;20070;-76
2024/01/15 14:14:35;;;;;;;15.90;8.40;;;0.80;92.80;;;;;;4087061;29;20110;-76
2024/01/15 14:16:36;;;;;;;18.20;8.20;;;0.80;93.20;;;;;;4082778;29;20114;-77
2024/01/15 14:18:38;;;;;;;16.08;8.20;;;0.80;93.30;;;;;;4082893;29;20107;-75
2024/01/15 14:20:40;;;;;;;23.10;8.50;;;0.90;93.30;;;;;;4082756;29;20063;-76
2024/01/15 14:22:41;;;;;;;17.88;7.60;;;0.80;93.40;;;;;;4082941;29;20054;-77
2024/01/15 14:24:43;;;;;;;18.23;8.10;;;0.80;93.50;;;;;;4089391;29;20552;-76
2024/01/15 14:26:45;;;;;;;18.10;8.07;;;0.80;93.50;;;;;;4098480;29;20054;-77
2024/01/15 14:28:49;;;;;;;17.92;8.23;;;0.90;93.50;;;;;;4098846;29;20055;-77
2024/01/15 14:30:51;;;;;;;19.90;8.13;;;0.80;93.60;;;;;;4098394;29;20130;-77
2024/01/15 14:32:52;;;;;;;20.65;8.65;;;0.70;93.70;;;;;;4098609;29;20059;-77
2024/01/15 14:34:54;;;;;;;18.38;8.25;;;0.80;93.70;;;;;;4098654;29;20078;-75
2024/01/15 14:36:56;;;;;;;18.25;8.45;;;0.80;93.70;;;;;;4096675;29;20055;-77
2024/01/15 14:38:57;;;;;;;19.60;8.70;;;0.80;93.80;;;;;;4098288;29;20061;-78
2024/01/15 14:40:59;;;;;;;19.65;8.68;;;0.80;93.90;;;;;;4098553;29;20114;-76
2024/01/15 14:43:01;;;;;;;19.52;8.32;;;0.80;94.10;;;;;;4089179;29;20078;-77
2024/01/15 14:45:11;;;;;;;20.75;8.50;;;0.80;94.20;;;;;;4082678;29;20122;-78
2024/01/15 14:47:13;;;;;;;19.35;8.48;;;0.70;94.40;;;;;;4082656;29;20052;-78
2024/01/15 14:49:16;;;;;;;18.00;8.18;;;0.70;94.30;;;;;;4082286;29;20063;-79
2024/01/15 14:51:18;;;;;;;18.50;8.18;;;0.70;94.30;;;;;;4081345;29;20055;-77
2024/01/15 14:53:21;;;;;;;18.10;8.63;;;0.80;94.40;;;;;;4082540;29;20119;-79
2024/01/15 14:55:23;;;;;;;23.98;11.45;;;0.70;94.30;;;;;;4082722;29;20062;-78
2024/01/15 14:57:25;;;;;;;22.63;9.85;;;0.70;94.60;;;;;;4082414;29;20059;-78
2024/01/15 14:59:28;;;;;;;19.17;8.57;;;0.80;94.60;;;;;;4082368;29;20207;-77
2024/01/15 15:01:32;;;;;;;17.75;8.80;;;0.80;94.60;;;;;;4081945;29;20073;-78
2024/01/15 15:03:34;;;;;;;18.20;8.63;;;0.70;94.70;;;;;;4082280;29;20060;-78
2024/01/15 15:05:36;;;;;;;22.67;8.65;;;0.70;94.60;;;;;;4082148;29;20103;-76
2024/01/15 15:07:37;;;;;;;19.02;8.60;;;0.70;94.90;;;;;;4082200;29;20051;-77
2024/01/15 15:09:39;;;;;;;17.23;9.00;;;0.80;95.00;;;;;;4082147;29;20062;-76
2024/01/15 15:11:40;;;;;;;19.52;8.95;;;0.90;94.90;;;;;;4092467;29;20070;-77
2024/01/15 15:13:42;;;;;;;17.95;9.00;;;0.90;94.50;;;;;;4095116;29;20043;-75
2024/01/15 15:15:44;;;;;;;16.02;7.70;;;1.00;94.50;;;;;;4084814;29;20051;-76
2024/01/15 15:17:47;;;;;;;15.63;7.55;;;1.00;94.60;;;;;;4090834;29;20466;-78
2024/01/15 15:19:49;;;;;;;15.02;7.47;;;0.90;94.50;;;;;;4082084;29;20052;-76
2024/01/15 15:21:51;;;;;;;15.13;7.07;;;0.70;95.10;;;;;;4089647;29;20047;-78
2024/01/15 15:23:53;;;;;;;13.57;6.38;;;0.80;95.40;;;;;;4097968;29;20051;-76
2024/01/15 15:25:55;;;;;;;11.82;5.65;;;0.70;95.40;;;;;;4097965;29;20058;-76
2024/01/15 15:27:56;;;;;;;11.55;5.70;;;0.60;95.50;;;;;;4087509;29;20092;-75
2024/01/15 15:29:57;;;;;;;13.77;5.95;;;0.60;95.50;;;;;;4083022;29;20052;-75
2024/01/15 15:31:59;;;;;;;12.18;5.60;;;0.70;95.50;;;;;;4082098;29;20107;-75
2024/01/15 15:34:02;;;;;;;13.50;6.15;;;0.70;95.40;;;;;;4082913;29;20056;-75
2024/01/15 15:36:05;;;;;;;11.90;5.43;;;0.70;95.30;;;;;;4080347;29;20055;-75
2024/01/15 15:38:07;;;;;;;13.20;5.80;;;0.70;95.00;;;;;;4094677;29;20051;-75
2024/01/15 15:40:11;;;;;;;14.40;6.75;;;0.70;95.00;;;;;;4097862;29;20055;-76
2024/01/15 15:42:13;;;;;;;12.95;5.82;;;0.60;94.70;;;;;;4097795;29;20552;-76
2024/01/15 15:44:16;;;;;;;11.48;5.47;;;0.60;94.50;;;;;;4096329;29;20051;-75
2024/01/15 15:46:18;;;;;;;10.82;5.43;;;0.60;94.00;;;;;;4097809;29;20058;-74
2024/01/15 15:48:20;;;;;;;10.10;4.68;;;0.50;93.70;;;;;;4096326;29;20055;-79
2024/01/15 15:50:23;;;;;;;10.52;4.63;;;0.60;93.00;;;;;;4086403;29;20055;-77
2024/01/15 15:52:25;;;;;;;8.82;4.25;;;0.50;92.80;;;;;;4097815;29;20473;-78
2024/01/15 15:54:27;;;;;;;7.72;3.67;;;0.50;92.50;;;;;;4089525;29;20051;-79
2024/01/15 15:56:28;;;;;;;7.53;3.95;;;0.50;91.90;;;;;;4084216;29;20114;-79
2024/01/15 15:58:30;;;;;;;8.25;4.15;;;0.50;92.00;;;;;;4097873;29;20453;-77
2024/01/15 16:00:32;;;;;;;7.63;4.22;;;0.50;91.90;;;;;;4096146;29;20079;-78
2024/01/15 16:02:34;;;;;;;7.85;4.43;;;0.40;91.90;;;;;;4099214;28;20058;-78
2024/01/15 16:04:38;;;;;;;8.20;4.22;;;0.40;92.10;;;;;;4094407;29;20051;-79
2024/01/15 16:06:42;;;;;;;9.25;4.57;;;0.40;91.80;;;;;;4082746;29;20178;-77
2024/01/15 16:08:44;;;;;;;8.48;4.30;;;0.40;91.70;;;;;;4070064;29;20479;-78
2024/01/15 16:10:48;;;;;;;8.07;4.18;;;0.40;91.50;;;;;;4071013;29;20086;-76
2024/01/15 16:12:50;;;;;;;8.98;4.28;;;0.40;91.40;;;;;;4076709;29;20394;-77
2024/01/15 16:14:52;;;;;;;8.40;4.43;;;0.40;91.30;;;;;;4084727;29;20437;-78
2024/01/15 16:16:57;;;;;;;6.90;3.90;;;0.40;91.10;;;;;;4092937;29;20047;-76
2024/01/15 16:18:59;;;;;;;6.27;3.50;;;0.40;90.90;;;;;;4091645;29;20051;-79
2024/01/15 16:21:01;;;;;;;7.88;3.90;;;0.40;90.80;;;;;;4084740;29;20106;-76
2024/01/15 16:23:05;;;;;;;7.57;3.72;;;0.40;90.60;;;;;;4085705;29;20528;-77
2024/01/15 16:25:07;;;;;;;7.10;3.65;;;0.40;90.10;;;;;;4095276;29;20716;-75
2024/01/15 16:27:09;;;;;;;7.15;3.78;;;0.40;90.10;;;;;;4084129;29;20597;-77
2024/01/15 16:29:10;;;;;;;8.63;4.00;;;0.40;90.00;;;;;;4085750;29;20119;-79
2024/01/15 16:31:12;;;;;;;7.80;3.78;;;0.40;90.10;;;;;;4084513;29;20478;-77
2024/01/15 16:33:14;;;;;;;7.35;3.78;;;0.30;89.80;;;;;;4085270;29;20099;-75
2024/01/15 16:35:16;;;;;;;8.00;3.55;;;0.40;88.90;;;;;;4095764;29;20047;-76
2024/01/15 16:37:18;;;;;;;10.02;4.40;;;0.40;87.60;;;;;;4097977;29;20094;-77
2024/01/15 16:39:21;;;;;;;8.25;3.83;;;0.30;87.90;;;;;;4087330;29;20486;-78
2024/01/15 16:41:23;;;;;;;8.85;4.28;;;0.40;88.40;;;;;;4084584;29;20482;-78
2024/01/15 16:43:26;;;;;;;8.45;4.30;;;0.30;87.50;;;;;;4084247;29;20043;-78